This is the latest recevied weather packets stored in our database for station/object HB9HFD-13. If no packets are shown the sender has not sent any weather packets the latest 10 day(s).
| Time | Temp. | Humidity | Pressure | Rain* | Wind** | Luminosity | Snow |
|---|---|---|---|---|---|---|---|
| 1788019974 | 27.78° C | 41% | 1014.5 hPa | 0 mm | - | - | - |
| 1788019674 | 27.78° C | 42% | 1014.6 hPa | 0 mm | - | - | - |
| 1788019374 | 27.22° C | 45% | 1014.6 hPa | 0 mm | - | - | - |
| 1788019074 | 26.67° C | 43% | 1014.6 hPa | 0 mm | - | - | - |
| 1788018773 | 26.11° C | 44% | 1014.6 hPa | 0 mm | - | - | - |
| 1788018473 | 26.11° C | 43% | 1014.6 hPa | 0 mm | - | - | - |
| 1788018173 | 26.67° C | 43% | 1014.6 hPa | 0 mm | - | - | - |
| 1788017873 | 26.11° C | 46% | 1014.6 hPa | 0 mm | - | - | - |
| 1788017572 | 26.67° C | 43% | 1014.7 hPa | 0 mm | - | - | - |
| 1788017272 | 26.67° C | 43% | 1014.7 hPa | 0 mm | - | - | - |
| 1788016972 | 26.67° C | 42% | 1014.8 hPa | 0 mm | - | - | - |
| 1788016672 | 26.67° C | 42% | 1014.7 hPa | 0 mm | - | - | - |
| 1788016371 | 27.78° C | 39% | 1014.8 hPa | 0 mm | - | - | - |
| 1788016071 | 28.33° C | 39% | 1014.8 hPa | 0 mm | - | - | - |
| 1788015771 | 28.33° C | 40% | 1014.7 hPa | 0 mm | - | - | - |
| 1788015471 | 27.78° C | 41% | 1014.8 hPa | 0 mm | - | - | - |
| 1788015170 | 28.33° C | 41% | 1014.9 hPa | 0 mm | - | - | - |
| 1788014870 | 28.33° C | 40% | 1015 hPa | 0 mm | - | - | - |
| 1788014570 | 28.33° C | 41% | 1015.1 hPa | 0 mm | - | - | - |
| 1788014269 | 27.78° C | 43% | 1015.1 hPa | 0 mm | - | - | - |
| 1788013969 | 27.78° C | 40% | 1015.2 hPa | 0 mm | - | - | - |
| 1788013669 | 28.33° C | 41% | 1015.1 hPa | 0 mm | - | - | - |
| 1788013369 | 27.78° C | 41% | 1015.2 hPa | 0 mm | - | - | - |
| 1788013068 | 27.22° C | 43% | 1015.2 hPa | 0 mm | - | - | - |
| 1788012768 | 26.67° C | 43% | 1015.2 hPa | 0 mm | - | - | - |
* Rain latest hour (hover to see other rain measurements)
** Current wind speed in m/s (hover to see current wind gust speed)